Van Meter, IA (50261)

6:14 PM CST on March 01, 2015 (GMT -0600)
Van Meter, Iowa | Change Station
CLOSE
Current Station
Personal Weather Station
Location: Van Meter, IA
Elevation: 880 ft
Nearby Weather Stations

Elev 880 ft 41.53 °N, 93.95 °W | Updated 23 seconds ago

Clear
Clear
28.8 °F
Feels Like 29 °F
N
1.0
Wind Variable Wind from NW
Gusts 8.0 mph

Today
High -- | Low -- °F
--% Chance of Precip.
Yesterday
High -- | Low -- °F
Precip. -- in
6:50 AM 6:06 PM
Waxing Gibbous, 88% visible
Pressure 30.42 in
Visibility 10.0 miles
Clouds Few 3500 ft
Few 20000 ft
Windchill 29 °F
Dew Point 18 °F
Humidity 65%
Rainfall 0.00 in
Snow Depth Not available.
UV 0.0 out of 12
Pollen .50 out of 12
Air Quality Not available.
Flu Activity Not available.
METAR KDSM 012354Z 32010KT 10SM FEW035 FEW200 M01/M09 A3038 RMK AO2 SLP300 T10111094 10006 21017 53013

More Conditions Fewer Conditions

Pressure 30.42 in
Visibility 10.0 miles
Clouds Few 3500 ft
Few 20000 ft
Windchill 29 °F
Dew Point 18 °F
Humidity 65%
Rainfall 0.00 in
Snow Depth Not available.
UV 0.0 out of 12
Pollen .50 out of 12
Air Quality Not available.
Flu Activity Not available.
METAR KDSM 012354Z 32010KT 10SM FEW035 FEW200 M01/M09 A3038 RMK AO2 SLP300 T10111094 10006 21017 53013

More Conditions Fewer Conditions

10-Day Weather Forecast

Almanac

Astronomy

Mar. 01, 2015 Rise Set
Actual Time
Civil Twilight
Nautical Twilight
Astronomical Twilight
Moon
Length of Visible Light
Length of Day
Tomorrow will be .
, % of the Moon is Illuminated

Today's Extremes

State Highs State Lows

Community

WunderPhotos

Upload Photos

1,801,642 photos uploaded!

WunderBlogs® & News

Nearby

Air Quality

  Air Quality AQ Index Pollutant
Not available.

Snow Depth

Station Depth Elevation

Earthquake Activity

City Distance Mag. Time & Date
Minimum magnitude displayed is 2.5.

Coastal Water Temperatures

Place Temperature

Nearby Weather Stations